createdAt,value
2023-05-06T00:01:40.176Z,12.57
2023-05-06T00:04:43.385Z,13.13
2023-05-06T00:07:46.400Z,13.65
2023-05-06T00:10:49.257Z,12.82
2023-05-06T00:13:51.897Z,12.53
2023-05-06T00:16:54.658Z,13.80
2023-05-06T00:19:58.690Z,16.17
2023-05-06T00:23:01.455Z,16.02
2023-05-06T00:26:04.095Z,14.40
2023-05-06T00:29:06.907Z,13.30
2023-05-06T00:32:09.557Z,14.53
2023-05-06T00:35:12.467Z,14.10
2023-05-06T00:38:19.522Z,15.45
2023-05-06T00:41:22.282Z,15.13
2023-05-06T00:44:25.310Z,17.20
2023-05-06T00:47:28.088Z,16.77
2023-05-06T00:50:32.579Z,15.23
2023-05-06T00:53:35.973Z,17.98
2023-05-06T00:56:38.478Z,14.50
2023-05-06T00:59:42.426Z,14.53
2023-05-06T01:02:47.822Z,14.57
2023-05-06T01:06:09.121Z,18.55
2023-05-06T01:09:15.007Z,21.05
2023-05-06T01:12:45.288Z,23.52
2023-05-06T01:15:51.700Z,20.10
2023-05-06T01:18:55.388Z,20.60
2023-05-06T01:22:01.329Z,22.95
2023-05-06T01:25:04.888Z,22.55
2023-05-06T01:28:10.487Z,26.23
2023-05-06T01:31:18.276Z,25.33
2023-05-06T01:34:34.688Z,25.63
2023-05-06T01:37:56.095Z,29.23
2023-05-06T01:40:59.986Z,27.65
2023-05-06T01:44:04.470Z,32.25
2023-05-06T01:47:08.979Z,33.37
2023-05-06T01:50:11.903Z,25.90
2023-05-06T01:53:14.613Z,30.85
2023-05-06T01:56:17.637Z,30.05
2023-05-06T01:59:20.357Z,26.15
2023-05-06T02:02:24.322Z,18.23
2023-05-06T02:05:27.269Z,27.83
2023-05-06T02:08:30.255Z,24.20
2023-05-06T02:11:33.557Z,34.90
2023-05-06T02:14:36.683Z,30.90
2023-05-06T02:17:40.069Z,29.93
2023-05-06T02:20:42.882Z,36.30
2023-05-06T02:23:50.739Z,33.15
2023-05-06T02:26:53.254Z,30.33
2023-05-06T02:29:56.015Z,29.67
2023-05-06T02:32:58.490Z,32.00
2023-05-06T02:36:01.301Z,30.50
2023-05-06T02:39:04.753Z,29.30
2023-05-06T02:42:07.795Z,30.92
2023-05-06T02:45:11.142Z,31.98
2023-05-06T02:48:14.125Z,32.23
2023-05-06T02:51:16.631Z,31.27
2023-05-06T02:54:19.525Z,32.45
2023-05-06T02:57:22.051Z,33.17
2023-05-06T03:00:24.886Z,30.25
2023-05-06T03:03:27.445Z,30.70
2023-05-06T03:06:31.546Z,30.37
2023-05-06T03:09:34.443Z,27.08
2023-05-06T03:12:37.419Z,29.02
2023-05-06T03:15:39.998Z,28.52
2023-05-06T03:18:43.046Z,28.17
2023-05-06T03:21:46.746Z,31.07
2023-05-06T03:24:50.790Z,29.08
2023-05-06T03:27:53.404Z,28.83
2023-05-06T03:30:56.612Z,27.48
2023-05-06T03:33:59.381Z,29.17
2023-05-06T03:37:02.579Z,27.37
2023-05-06T03:40:06.201Z,32.28
2023-05-06T03:43:09.391Z,28.50
2023-05-06T03:46:12.914Z,26.48
2023-05-06T03:49:15.778Z,29.37
2023-05-06T03:52:18.441Z,30.10
2023-05-06T03:55:21.448Z,27.50
2023-05-06T03:58:24.095Z,25.88
2023-05-06T04:01:27.258Z,27.92
2023-05-06T04:04:30.393Z,26.73
2023-05-06T04:07:33.025Z,26.70
2023-05-06T04:10:40.323Z,25.48
2023-05-06T04:13:44.063Z,26.98
2023-05-06T04:16:47.627Z,25.95
2023-05-06T04:19:50.142Z,25.23
2023-05-06T04:22:53.039Z,25.13
2023-05-06T04:25:58.010Z,25.27
2023-05-06T04:29:07.052Z,28.15
2023-05-06T04:32:11.733Z,25.73
2023-05-06T04:35:15.383Z,23.83
2023-05-06T04:38:18.430Z,24.83
2023-05-06T04:41:22.196Z,24.02
2023-05-06T04:44:25.187Z,25.15
2023-05-06T04:47:28.781Z,23.27
2023-05-06T04:50:32.293Z,24.47
2023-05-06T04:53:35.176Z,23.67
2023-05-06T04:56:38.214Z,23.08
2023-05-06T04:59:42.627Z,26.55
2023-05-06T05:02:45.744Z,23.23
2023-05-06T05:05:49.906Z,24.60
2023-05-06T05:08:55.312Z,22.40
2023-05-06T05:11:58.861Z,20.90
2023-05-06T05:15:02.060Z,26.30
2023-05-06T05:18:06.081Z,26.33
2023-05-06T05:21:08.921Z,27.80
2023-05-06T05:24:12.316Z,26.30
2023-05-06T05:27:15.016Z,24.00
2023-05-06T05:30:18.452Z,24.40
2023-05-06T05:33:21.653Z,25.70
2023-05-06T05:36:24.907Z,26.90
2023-05-06T05:39:28.400Z,16.63
2023-05-06T05:42:33.782Z,25.25
2023-05-06T05:45:38.093Z,23.87
2023-05-06T05:48:41.957Z,23.52
2023-05-06T05:51:46.241Z,22.53
2023-05-06T05:54:50.859Z,21.73
2023-05-06T05:57:53.895Z,26.67
2023-05-06T06:00:56.948Z,24.17
2023-05-06T06:04:00.701Z,26.48
2023-05-06T06:07:03.364Z,27.07
2023-05-06T06:10:07.221Z,26.30
2023-05-06T06:13:09.838Z,26.48
2023-05-06T06:16:12.954Z,26.70
2023-05-06T06:19:15.950Z,23.73
2023-05-06T06:22:19.059Z,26.57
2023-05-06T06:25:22.212Z,26.83
2023-05-06T06:28:25.098Z,24.48
2023-05-06T06:31:29.437Z,26.17
2023-05-06T06:34:32.418Z,26.45
2023-05-06T06:37:34.865Z,24.73
2023-05-06T06:40:37.628Z,25.47
2023-05-06T06:43:40.203Z,26.85
2023-05-06T06:46:43.187Z,24.27
2023-05-06T06:49:46.183Z,26.08
2023-05-06T06:52:49.204Z,21.83
2023-05-06T06:55:51.725Z,25.40
2023-05-06T06:58:54.691Z,26.35
2023-05-06T07:05:03.684Z,22.85
2023-05-06T07:08:07.050Z,22.60
2023-05-06T07:11:10.050Z,28.97
2023-05-06T07:14:13.597Z,23.60
2023-05-06T07:17:16.504Z,22.00
2023-05-06T07:20:19.157Z,21.48
2023-05-06T07:23:22.085Z,20.47
2023-05-06T07:26:24.913Z,21.73
2023-05-06T07:29:27.854Z,21.77
2023-05-06T07:32:30.895Z,22.23
2023-05-06T07:35:33.775Z,21.00
2023-05-06T07:38:36.372Z,20.90
2023-05-06T07:41:39.527Z,21.23
2023-05-06T07:44:42.225Z,20.48
2023-05-06T07:47:45.390Z,22.52
2023-05-06T07:50:47.989Z,22.58
2023-05-06T07:53:51.075Z,22.50
2023-05-06T07:56:53.627Z,25.30
2023-05-06T07:59:58.450Z,22.83
2023-05-06T08:03:01.349Z,28.38
2023-05-06T08:06:06.873Z,25.08
2023-05-06T08:09:14.794Z,25.00
2023-05-06T08:12:22.816Z,24.73
2023-05-06T08:15:25.385Z,25.80
2023-05-06T08:18:28.430Z,27.15
2023-05-06T08:21:31.258Z,25.00
2023-05-06T08:24:34.024Z,29.37
2023-05-06T08:27:36.599Z,24.30
2023-05-06T08:30:39.461Z,29.00
2023-05-06T08:33:41.988Z,29.02
2023-05-06T08:36:45.026Z,25.27
2023-05-06T08:39:47.853Z,26.77
2023-05-06T08:42:50.886Z,27.97
2023-05-06T08:45:54.788Z,24.30
2023-05-06T08:48:58.876Z,27.60
2023-05-06T08:52:04.727Z,26.50
2023-05-06T08:55:09.078Z,25.60
2023-05-06T08:58:15.792Z,22.83
2023-05-06T09:01:21.250Z,23.77
2023-05-06T09:04:23.925Z,23.38
2023-05-06T09:07:27.687Z,23.00
2023-05-06T09:10:42.435Z,23.97
2023-05-06T09:13:45.703Z,23.37
2023-05-06T09:16:50.574Z,27.48
2023-05-06T09:19:59.437Z,25.40
2023-05-06T09:23:02.691Z,25.17
2023-05-06T09:26:05.574Z,20.30
2023-05-06T09:29:08.658Z,25.57
2023-05-06T09:32:14.567Z,22.58
2023-05-06T09:35:17.104Z,20.42
2023-05-06T09:38:21.056Z,23.33
2023-05-06T09:41:25.672Z,22.73
2023-05-06T09:44:29.233Z,23.00
2023-05-06T09:47:35.746Z,23.52
2023-05-06T09:50:38.588Z,21.67
2023-05-06T09:53:41.652Z,22.98
2023-05-06T09:56:44.520Z,20.07
2023-05-06T09:59:48.214Z,21.13
2023-05-06T10:02:54.788Z,35.95
2023-05-06T10:06:02.044Z,22.50
2023-05-06T10:09:07.315Z,25.05
2023-05-06T10:12:10.548Z,21.83
2023-05-06T10:15:13.314Z,22.03
2023-05-06T10:18:17.773Z,17.83
2023-05-06T10:21:22.657Z,18.90
2023-05-06T10:24:31.698Z,20.73
2023-05-06T10:27:36.115Z,18.97
2023-05-06T10:30:40.347Z,20.60
2023-05-06T10:33:47.315Z,19.62
2023-05-06T10:36:57.635Z,18.73
2023-05-06T10:40:00.449Z,21.42
2023-05-06T10:43:23.294Z,15.73
2023-05-06T10:46:28.345Z,17.87
2023-05-06T10:49:31.108Z,16.35
2023-05-06T10:52:46.602Z,17.92
2023-05-06T10:56:07.256Z,15.07
2023-05-06T10:59:11.913Z,16.33
2023-05-06T11:02:18.773Z,12.70
2023-05-06T11:05:22.367Z,14.57
2023-05-06T11:08:26.500Z,11.98
2023-05-06T11:12:04.007Z,12.30
2023-05-06T11:15:26.887Z,11.70
2023-05-06T11:18:29.417Z,13.17
2023-05-06T11:21:32.576Z,12.40
2023-05-06T11:24:42.575Z,14.18
2023-05-06T11:27:45.526Z,11.38
2023-05-06T11:30:55.011Z,11.47
2023-05-06T11:33:59.815Z,11.80
2023-05-06T11:37:07.275Z,12.52
2023-05-06T11:40:16.362Z,11.18
2023-05-06T11:43:18.986Z,11.25
2023-05-06T11:46:23.641Z,9.57
2023-05-06T11:49:27.438Z,10.73
2023-05-06T11:52:30.711Z,10.43
2023-05-06T11:55:33.247Z,11.32
2023-05-06T11:58:36.598Z,13.52
2023-05-06T12:01:41.595Z,10.37
2023-05-06T12:04:46.528Z,7.90
2023-05-06T12:07:49.223Z,8.07
2023-05-06T12:10:52.901Z,6.87
2023-05-06T12:13:55.763Z,6.30
2023-05-06T12:16:58.579Z,5.17
2023-05-06T12:20:01.251Z,5.17
2023-05-06T12:23:15.464Z,7.35
2023-05-06T12:26:19.479Z,6.45
2023-05-06T12:29:22.375Z,5.35
2023-05-06T12:32:24.861Z,6.47
2023-05-06T12:35:29.342Z,6.00
2023-05-06T12:38:32.359Z,5.43
2023-05-06T12:41:37.660Z,4.82
2023-05-06T12:44:40.286Z,5.50
2023-05-06T12:47:57.097Z,5.80
2023-05-06T12:50:59.648Z,6.23
2023-05-06T12:54:04.875Z,5.72
2023-05-06T12:57:07.550Z,6.25
2023-05-06T13:00:11.170Z,4.87
2023-05-06T13:03:14.174Z,5.70
2023-05-06T13:06:17.045Z,5.00
2023-05-06T13:09:19.731Z,7.90
2023-05-06T13:12:22.634Z,4.72
2023-05-06T13:15:25.352Z,3.67
2023-05-06T13:18:29.514Z,3.67
2023-05-06T13:21:32.323Z,4.87
2023-05-06T13:24:35.104Z,4.90
2023-05-06T13:27:38.265Z,3.58
2023-05-06T13:30:41.389Z,4.45
2023-05-06T13:33:43.887Z,4.27
2023-05-06T13:36:49.341Z,4.10
2023-05-06T13:39:51.904Z,4.53
2023-05-06T13:42:56.316Z,5.47
2023-05-06T13:45:58.877Z,4.57
2023-05-06T13:49:01.711Z,4.23
2023-05-06T13:52:05.789Z,3.50
2023-05-06T13:55:11.179Z,3.65
2023-05-06T13:58:13.862Z,4.82
2023-05-06T14:01:16.803Z,9.40
2023-05-06T14:04:19.674Z,5.57
2023-05-06T14:07:22.132Z,7.67
2023-05-06T14:10:25.036Z,6.22
2023-05-06T14:13:27.718Z,5.57
2023-05-06T14:16:30.695Z,5.65
2023-05-06T14:19:33.224Z,5.80
2023-05-06T14:22:37.770Z,4.37
2023-05-06T14:25:40.323Z,5.45
2023-05-06T14:28:43.210Z,4.12
2023-05-06T14:31:45.892Z,4.97
2023-05-06T14:34:50.641Z,3.37
2023-05-06T14:37:53.983Z,3.50
2023-05-06T14:40:59.320Z,2.95
2023-05-06T14:44:02.116Z,6.85
2023-05-06T14:47:04.952Z,2.95
2023-05-06T14:50:11.767Z,3.37
2023-05-06T14:53:14.582Z,4.77
2023-05-06T14:56:17.242Z,3.22
2023-05-06T14:59:22.670Z,4.10
2023-05-06T15:02:25.640Z,5.53
2023-05-06T15:05:28.614Z,4.00
2023-05-06T15:08:31.525Z,4.53
2023-05-06T15:11:34.372Z,4.72
2023-05-06T15:14:38.342Z,4.68
2023-05-06T15:17:41.854Z,4.95
2023-05-06T15:20:44.456Z,6.30
2023-05-06T15:23:47.888Z,6.03
2023-05-06T15:26:50.394Z,6.10
2023-05-06T15:29:53.193Z,6.47
2023-05-06T15:32:55.848Z,8.52
2023-05-06T15:35:58.990Z,4.77
2023-05-06T15:39:01.901Z,6.77
2023-05-06T15:42:05.227Z,8.63
2023-05-06T15:45:08.174Z,8.55
2023-05-06T15:48:11.131Z,8.98
2023-05-06T15:51:13.732Z,8.37
2023-05-06T15:54:18.462Z,8.07
2023-05-06T15:57:20.954Z,8.80
2023-05-06T16:00:24.165Z,8.25
2023-05-06T16:03:27.090Z,7.60
2023-05-06T16:06:29.623Z,6.47
2023-05-06T16:09:32.434Z,6.83
2023-05-06T16:12:35.239Z,8.32
2023-05-06T16:15:39.663Z,9.73
2023-05-06T16:18:42.196Z,7.70
2023-05-06T16:21:45.394Z,9.37
2023-05-06T16:24:48.112Z,8.47
2023-05-06T16:27:51.025Z,9.05
2023-05-06T16:30:54.071Z,11.32
2023-05-06T16:33:57.091Z,22.52
2023-05-06T16:37:00.608Z,15.07
2023-05-06T16:40:04.822Z,14.67
2023-05-06T16:43:07.433Z,13.62
2023-05-06T16:46:11.822Z,12.45
2023-05-06T16:49:15.545Z,9.95
2023-05-06T16:52:18.967Z,12.53
2023-05-06T16:55:21.923Z,8.73
2023-05-06T16:58:24.717Z,8.82
2023-05-06T17:01:27.277Z,9.10
2023-05-06T17:04:30.136Z,15.45
2023-05-06T17:07:32.597Z,12.27
2023-05-06T17:10:35.529Z,9.07
2023-05-06T17:13:38.109Z,10.13
2023-05-06T17:16:43.145Z,10.25
2023-05-06T17:19:45.842Z,8.60
2023-05-06T17:22:49.259Z,9.43
2023-05-06T17:25:52.058Z,9.83
2023-05-06T17:28:54.852Z,8.20
2023-05-06T17:31:57.450Z,8.50
2023-05-06T17:35:01.152Z,9.05
2023-05-06T17:38:03.973Z,10.20
2023-05-06T17:41:06.755Z,9.43
2023-05-06T17:44:09.493Z,36.90
2023-05-06T17:47:12.746Z,26.08
2023-05-06T17:50:15.295Z,19.50
2023-05-06T17:53:18.121Z,10.23
2023-05-06T17:56:20.662Z,9.00
2023-05-06T17:59:25.283Z,9.15
2023-05-06T18:02:28.749Z,8.50
2023-05-06T18:05:31.592Z,9.38
2023-05-06T18:08:34.054Z,13.00
2023-05-06T18:11:38.222Z,12.77
2023-05-06T18:14:41.100Z,11.35
2023-05-06T18:17:43.988Z,11.25
2023-05-06T18:20:46.563Z,12.32
2023-05-06T18:23:51.442Z,11.30
2023-05-06T18:26:56.320Z,12.90
2023-05-06T18:29:59.430Z,11.65
2023-05-06T18:33:02.047Z,12.75
2023-05-06T18:36:05.285Z,13.07
2023-05-06T18:39:07.965Z,17.87
2023-05-06T18:42:11.419Z,18.20
2023-05-06T18:45:14.116Z,15.02
2023-05-06T18:48:16.896Z,14.15
2023-05-06T18:51:19.968Z,18.58
2023-05-06T18:54:23.912Z,29.00
2023-05-06T18:57:27.006Z,29.70
2023-05-06T19:00:30.582Z,32.42
2023-05-06T19:03:37.434Z,30.62
2023-05-06T19:06:40.362Z,29.50
2023-05-06T19:09:43.176Z,26.73
2023-05-06T19:12:46.043Z,24.87
2023-05-06T19:15:48.706Z,25.20
2023-05-06T19:18:51.735Z,22.65
2023-05-06T19:21:54.349Z,24.10
2023-05-06T19:24:57.126Z,21.33
2023-05-06T19:27:59.743Z,22.63
2023-05-06T19:31:08.587Z,25.35
2023-05-06T19:34:11.139Z,22.60
2023-05-06T19:37:13.986Z,25.08
2023-05-06T19:40:18.833Z,27.37
2023-05-06T19:43:23.039Z,27.20
2023-05-06T19:46:25.983Z,21.17
2023-05-06T19:49:30.452Z,17.23
2023-05-06T19:52:34.813Z,13.93
2023-05-06T19:55:37.828Z,11.57
2023-05-06T19:58:40.671Z,13.53
2023-05-06T20:01:44.293Z,10.68
2023-05-06T20:04:47.193Z,12.23
2023-05-06T20:07:50.672Z,13.43
2023-05-06T20:10:53.460Z,12.63
2023-05-06T20:13:56.157Z,14.27
2023-05-06T20:16:59.117Z,15.98
2023-05-06T20:20:09.243Z,14.00
2023-05-06T20:23:12.333Z,13.43
2023-05-06T20:26:14.832Z,15.97
2023-05-06T20:29:17.854Z,16.80
2023-05-06T20:32:20.658Z,16.75
2023-05-06T20:35:23.711Z,15.20
2023-05-06T20:38:27.397Z,14.87
2023-05-06T20:41:31.620Z,11.30
2023-05-06T20:44:34.884Z,13.47
2023-05-06T20:47:37.775Z,13.15
2023-05-06T20:50:40.328Z,11.98
2023-05-06T20:53:43.579Z,11.38
2023-05-06T20:56:46.111Z,12.03
2023-05-06T20:59:52.500Z,13.20
2023-05-06T21:02:55.275Z,14.02
2023-05-06T21:05:58.129Z,11.88
2023-05-06T21:09:01.178Z,12.25
2023-05-06T21:12:04.655Z,11.53
2023-05-06T21:15:07.797Z,12.53
2023-05-06T21:18:13.834Z,11.27
2023-05-06T21:21:16.692Z,11.45
2023-05-06T21:24:19.291Z,12.10
2023-05-06T21:27:22.034Z,10.87
2023-05-06T21:30:24.507Z,10.30
2023-05-06T21:33:27.410Z,10.23
2023-05-06T21:36:29.921Z,9.30
2023-05-06T21:39:32.771Z,9.43
2023-05-06T21:42:35.992Z,10.23
2023-05-06T21:45:38.904Z,9.77
2023-05-06T21:48:41.508Z,9.20
2023-05-06T21:51:44.379Z,7.40
2023-05-06T21:54:47.219Z,7.18
2023-05-06T21:57:50.814Z,5.77
2023-05-06T22:00:53.364Z,5.17
2023-05-06T22:03:56.360Z,6.55
2023-05-06T22:06:59.126Z,5.60
2023-05-06T22:10:01.916Z,6.15
2023-05-06T22:13:04.561Z,8.07
2023-05-06T22:16:07.843Z,10.17
2023-05-06T22:19:14.294Z,17.85
2023-05-06T22:22:17.164Z,11.00
2023-05-06T22:25:19.942Z,8.38
2023-05-06T22:28:22.686Z,7.87
2023-05-06T22:31:26.609Z,6.67
2023-05-06T22:34:29.520Z,6.30
2023-05-06T22:37:31.983Z,7.62
2023-05-06T22:40:34.778Z,7.35
2023-05-06T22:43:37.352Z,9.10
2023-05-06T22:46:40.129Z,5.93
2023-05-06T22:49:43.041Z,6.85
2023-05-06T22:52:45.834Z,6.00
2023-05-06T22:55:48.663Z,6.68
2023-05-06T22:58:51.711Z,7.13
2023-05-06T23:01:54.778Z,6.30
2023-05-06T23:04:59.347Z,7.60
2023-05-06T23:08:01.791Z,10.15
2023-05-06T23:11:05.044Z,8.95
2023-05-06T23:14:08.187Z,7.20
2023-05-06T23:17:11.169Z,6.97
2023-05-06T23:20:13.839Z,7.47
2023-05-06T23:23:16.805Z,7.60
2023-05-06T23:26:19.336Z,9.40
2023-05-06T23:29:23.083Z,7.93
2023-05-06T23:32:26.605Z,7.80
2023-05-06T23:35:29.410Z,6.60
2023-05-06T23:38:32.002Z,8.38
2023-05-06T23:41:34.803Z,25.12
2023-05-06T23:44:37.303Z,29.10
2023-05-06T23:47:40.911Z,21.73
2023-05-06T23:50:43.540Z,8.13
2023-05-06T23:53:46.477Z,7.55
2023-05-06T23:56:49.154Z,7.35
2023-05-06T23:59:51.983Z,7.33
